BOS weather

General Edward Lawrence Logan International Airport
Boston, Massachusetts, United States

Public forecast

Using degrees Fahrenheit for public forecast. Weather courtesy of forecast.io.

METAR (pilot weather report)

Retrieved 2017/03/29 08:54 UTC (19 minutes ago):

KBOS 290854Z 35008KT 10SM OVC006 03/03 A2996

TAF (pilot weather forecast)

Retrieved 2017/03/29 06:42 UTC (3 hours ago):

TAF KBOS 290537Z 2906/3012 36006KT 6SM -RA BR SCT008 OVC025 FM290900 35007KT 6SM BR SCT008 BKN025 FM291600 34010G18KT P6SM SCT025 FM292100 33012G22KT P6SM SCT040 FM292300 33013G26KT P6SM SCT250